createdAt,value
2022-11-20T00:02:55.326Z,90.42
2022-11-20T00:08:33.860Z,91.30
2022-11-20T00:20:14.578Z,90.85
2022-11-20T00:25:41.750Z,90.43
2022-11-20T00:31:20.515Z,91.46
2022-11-20T00:36:47.093Z,91.87
2022-11-20T00:54:36.539Z,91.65
2022-11-20T01:00:01.649Z,91.09
2022-11-20T01:05:34.969Z,91.61
2022-11-20T01:11:13.501Z,91.96
2022-11-20T01:16:47.477Z,91.63
2022-11-20T01:22:23.732Z,92.49
2022-11-20T01:28:13.624Z,92.75
2022-11-20T01:33:40.820Z,92.98
2022-11-20T01:39:46.622Z,92.97
2022-11-20T01:45:46.433Z,92.72
2022-11-20T01:51:38.812Z,92.71
2022-11-20T01:57:12.580Z,93.19
2022-11-20T02:02:36.915Z,92.32
2022-11-20T02:08:09.519Z,92.79
2022-11-20T02:13:48.137Z,92.77
2022-11-20T02:19:25.875Z,92.60
2022-11-20T02:25:09.607Z,93.38
2022-11-20T02:30:35.259Z,93.15
2022-11-20T02:36:03.549Z,93.42
2022-11-20T02:41:37.373Z,93.40
2022-11-20T02:47:18.475Z,93.46
2022-11-20T02:52:45.138Z,93.59
2022-11-20T02:58:13.310Z,94.43
2022-11-20T03:03:48.588Z,94.20
2022-11-20T03:09:24.883Z,94.85
2022-11-20T03:15:04.505Z,94.99
2022-11-20T03:20:29.676Z,94.94
2022-11-20T03:25:55.069Z,95.66
2022-11-20T03:31:27.306Z,95.96
2022-11-20T03:36:54.798Z,96.26
2022-11-20T03:42:34.001Z,95.99
2022-11-20T03:48:01.796Z,95.90
2022-11-20T03:53:32.335Z,96.20
2022-11-20T03:58:57.353Z,96.05
2022-11-20T04:04:24.767Z,96.18
2022-11-20T04:09:57.562Z,95.69
2022-11-20T04:15:22.685Z,96.56
2022-11-20T04:21:05.961Z,96.17
2022-11-20T04:26:39.653Z,96.03
2022-11-20T04:32:07.082Z,95.83
2022-11-20T04:37:36.701Z,96.21
2022-11-20T04:43:12.238Z,96.63
2022-11-20T04:48:41.559Z,96.02
2022-11-20T04:54:16.370Z,96.65
2022-11-20T04:59:51.497Z,96.26
2022-11-20T05:05:19.150Z,96.14
2022-11-20T05:11:21.196Z,96.45
2022-11-20T05:16:48.374Z,96.09
2022-11-20T05:22:14.418Z,96.29
2022-11-20T05:27:53.063Z,96.36
2022-11-20T05:33:30.051Z,96.05
2022-11-20T05:38:59.731Z,95.71
2022-11-20T05:44:33.439Z,96.09
2022-11-20T05:49:56.936Z,96.03
2022-11-20T05:55:22.224Z,95.77
2022-11-20T06:00:51.114Z,96.23
2022-11-20T06:06:15.434Z,95.55
2022-11-20T06:11:39.863Z,96.30
2022-11-20T06:17:07.373Z,96.39
2022-11-20T06:22:40.165Z,96.90
2022-11-20T06:28:05.593Z,96.61
2022-11-20T06:33:33.787Z,96.80
2022-11-20T06:39:03.736Z,96.55
2022-11-20T06:44:41.644Z,96.94
2022-11-20T06:50:29.576Z,96.79
2022-11-20T06:55:59.217Z,96.83
2022-11-20T07:01:25.678Z,96.48
2022-11-20T07:07:12.118Z,96.12
2022-11-20T07:12:45.078Z,96.25
2022-11-20T07:18:16.548Z,96.66
2022-11-20T07:23:52.527Z,96.27
2022-11-20T07:29:36.666Z,96.33
2022-11-20T07:35:18.147Z,96.47
2022-11-20T07:40:57.361Z,96.36
2022-11-20T07:52:06.520Z,96.15
2022-11-20T07:57:46.849Z,96.26
2022-11-20T08:03:32.291Z,95.74
2022-11-20T08:09:18.202Z,95.36
2022-11-20T08:15:11.341Z,94.50
2022-11-20T08:20:40.675Z,93.66
2022-11-20T08:26:07.659Z,94.20
2022-11-20T08:50:45.266Z,92.74
2022-11-20T08:56:31.161Z,92.19
2022-11-20T09:01:56.749Z,90.98
2022-11-20T09:07:31.226Z,90.92
2022-11-20T09:12:57.616Z,90.00
2022-11-20T09:18:22.871Z,90.03
2022-11-20T09:23:57.189Z,89.73
2022-11-20T09:41:29.319Z,88.73
2022-11-20T09:47:02.373Z,88.33
2022-11-20T09:52:36.929Z,87.72
2022-11-20T09:58:05.844Z,88.07
2022-11-20T10:16:17.913Z,86.28
2022-11-20T10:22:01.275Z,86.81
2022-11-20T10:28:17.666Z,86.80
2022-11-20T10:34:12.035Z,86.77
2022-11-20T10:40:01.706Z,86.44
2022-11-20T10:46:06.859Z,86.66
2022-11-20T10:52:08.700Z,86.46
2022-11-20T10:58:05.414Z,86.70
2022-11-20T11:10:00.354Z,86.91
2022-11-20T11:15:36.057Z,86.30
2022-11-20T11:21:04.050Z,86.94
2022-11-20T11:26:33.065Z,86.31
2022-11-20T11:32:11.571Z,85.67
2022-11-20T11:37:44.225Z,85.26
2022-11-20T11:43:47.641Z,85.09
2022-11-20T11:49:25.440Z,83.97
2022-11-20T11:54:55.280Z,84.20
2022-11-20T12:00:25.076Z,83.91
2022-11-20T12:06:02.178Z,83.39
2022-11-20T12:11:47.369Z,83.09
2022-11-20T12:17:27.993Z,83.22
2022-11-20T12:23:03.281Z,83.18
2022-11-20T12:28:46.835Z,82.73
2022-11-20T12:34:34.078Z,82.76
2022-11-20T12:40:20.858Z,83.07
2022-11-20T12:46:25.487Z,82.75
2022-11-20T12:52:21.075Z,82.73
2022-11-20T12:57:59.943Z,82.52
2022-11-20T13:03:50.968Z,82.15
2022-11-20T13:09:25.239Z,81.54
2022-11-20T13:15:40.028Z,81.65
2022-11-20T13:21:04.107Z,81.42
2022-11-20T13:26:35.361Z,81.05
2022-11-20T13:32:18.185Z,81.17
2022-11-20T13:37:50.984Z,80.45
2022-11-20T13:43:35.082Z,80.06
2022-11-20T13:49:17.513Z,80.83
2022-11-20T13:55:09.555Z,80.16
2022-11-20T14:01:04.854Z,80.11
2022-11-20T14:06:36.482Z,79.54
2022-11-20T14:12:07.114Z,79.60
2022-11-20T14:17:42.534Z,79.30
2022-11-20T14:23:29.772Z,79.86
2022-11-20T14:29:10.841Z,80.89
2022-11-20T14:35:08.659Z,82.06
2022-11-20T14:40:45.637Z,82.86
2022-11-20T14:46:20.223Z,83.73
2022-11-20T14:51:54.330Z,84.46
2022-11-20T14:57:38.685Z,85.00
2022-11-20T15:03:34.066Z,85.11
2022-11-20T15:09:14.009Z,85.52
2022-11-20T15:20:54.088Z,86.08
2022-11-20T15:26:29.531Z,86.84
2022-11-20T15:32:16.126Z,86.96
2022-11-20T15:38:07.639Z,87.74
2022-11-20T15:43:31.687Z,87.80
2022-11-20T15:55:09.779Z,89.06
2022-11-20T16:00:50.316Z,89.15
2022-11-20T16:06:32.314Z,88.97
2022-11-20T16:12:10.885Z,88.61
2022-11-20T16:17:46.399Z,89.13
2022-11-20T16:23:26.028Z,88.84
2022-11-20T16:28:48.730Z,89.49
2022-11-20T16:34:17.041Z,89.59
2022-11-20T16:39:51.881Z,89.62
2022-11-20T16:45:33.758Z,90.35
2022-11-20T16:51:01.111Z,90.52
2022-11-20T16:56:36.233Z,90.53
2022-11-20T17:02:21.439Z,90.97
2022-11-20T17:14:03.540Z,91.64
2022-11-20T17:19:38.568Z,92.49
2022-11-20T17:25:10.200Z,92.84
2022-11-20T17:31:22.464Z,92.97
2022-11-20T17:36:52.713Z,93.36
2022-11-20T17:42:47.918Z,94.42
2022-11-20T17:48:21.070Z,94.03
2022-11-20T17:54:03.364Z,94.11
2022-11-20T17:59:43.437Z,94.69
2022-11-20T18:05:12.588Z,94.51
2022-11-20T18:10:50.920Z,94.92
2022-11-20T18:16:20.751Z,96.15
2022-11-20T18:21:49.019Z,96.09
2022-11-20T18:27:33.392Z,96.45
2022-11-20T18:33:00.297Z,95.58
2022-11-20T18:38:28.654Z,96.18
2022-11-20T18:44:16.152Z,96.26
2022-11-20T18:49:41.444Z,96.80
2022-11-20T19:00:46.938Z,96.83
2022-11-20T19:06:24.404Z,96.74
2022-11-20T19:11:50.256Z,96.40
2022-11-20T19:17:18.515Z,96.60
2022-11-20T19:22:48.419Z,97.05
2022-11-20T19:28:41.910Z,97.07
2022-11-20T19:34:46.373Z,96.94
2022-11-20T19:40:19.361Z,96.96
2022-11-20T19:51:46.164Z,96.36
2022-11-20T19:57:12.425Z,96.34
2022-11-20T20:02:39.391Z,95.97
2022-11-20T20:08:05.999Z,96.12
2022-11-20T20:13:29.726Z,95.62
2022-11-20T20:18:59.884Z,95.87
2022-11-20T20:24:41.947Z,95.97
2022-11-20T20:30:23.511Z,95.56
2022-11-20T20:35:46.224Z,95.70
2022-11-20T20:41:25.135Z,95.09
2022-11-20T20:47:06.421Z,94.69
2022-11-20T20:52:38.259Z,94.50
2022-11-20T20:58:10.328Z,94.61
2022-11-20T21:03:35.691Z,94.16
2022-11-20T21:09:08.026Z,94.22
2022-11-20T21:14:54.322Z,93.93
2022-11-20T21:20:33.452Z,94.02
2022-11-20T21:26:12.199Z,94.06
2022-11-20T21:31:47.589Z,94.14
2022-11-20T21:37:14.350Z,94.58
2022-11-20T21:42:43.360Z,94.32
2022-11-20T21:48:19.418Z,94.86
2022-11-20T21:53:46.126Z,94.98
2022-11-20T21:59:27.253Z,95.53
2022-11-20T22:10:38.414Z,95.80
2022-11-20T22:16:12.143Z,96.08
2022-11-20T22:21:38.181Z,96.54
2022-11-20T22:27:07.500Z,96.25
2022-11-20T22:32:37.090Z,96.67
2022-11-20T22:38:20.492Z,97.00
2022-11-20T22:44:08.449Z,96.85
2022-11-20T22:49:36.819Z,97.19
2022-11-20T22:55:16.313Z,97.47
2022-11-20T23:01:01.600Z,97.77
2022-11-20T23:06:29.739Z,97.71
2022-11-20T23:17:58.336Z,97.71
2022-11-20T23:23:22.911Z,97.99
2022-11-20T23:29:12.975Z,98.71
2022-11-20T23:34:46.064Z,98.90
2022-11-20T23:40:16.511Z,99.24
2022-11-20T23:45:48.881Z,99.86
2022-11-20T23:56:54.445Z,100.00
